Time;durP1;ratioP1;P1;durP2;ratioP2;P2;SDS_P1;SDS_P2;PMS_P1;PMS_P2;Temp;Humidity;BMP_temperature;BMP_pressure;BME280_temperature;BME280_humidity;BME280_pressure;Samples;Min_cycle;Max_cycle;Signal;HPM_P1;HPM_P2
2020/12/26 00:01:55;;;;;;;4.75;1.55;;;;;;;-0.56;91.14;99320.75;1666034;84;21088;-66
2020/12/26 00:04:23;;;;;;;3.72;2.02;;;;;;;-0.55;91.08;99317.34;1653847;85;21043;-66
2020/12/26 00:06:53;;;;;;;5.25;1.95;;;;;;;-0.53;91.03;99314.34;1653940;85;21161;-66
2020/12/26 00:09:21;;;;;;;3.60;2.30;;;;;;;-0.58;90.85;99309.68;1651101;85;21259;-67
2020/12/26 00:11:51;;;;;;;4.67;2.00;;;;;;;-0.63;90.79;99309.70;1683393;84;21419;-66
2020/12/26 00:14:20;;;;;;;2.50;1.70;;;;;;;-0.72;90.69;99312.36;1645913;86;21232;-66
2020/12/26 00:16:50;;;;;;;4.78;1.75;;;;;;;-0.76;90.77;99321.77;1666446;85;21122;-66
2020/12/26 00:19:18;;;;;;;4.37;1.75;;;;;;;-0.79;90.90;99321.79;1678567;84;21061;-66
2020/12/26 00:21:47;;;;;;;3.70;1.70;;;;;;;-0.79;90.97;99326.92;1679647;84;21199;-66
2020/12/26 00:24:14;;;;;;;2.85;1.27;;;;;;;-0.76;91.09;99325.61;1678307;84;21260;-67
2020/12/26 00:26:44;;;;;;;3.67;1.40;;;;;;;-0.75;90.98;99323.48;1677978;84;21113;-66
2020/12/26 00:29:16;;;;;;;3.17;1.30;;;;;;;-0.75;90.94;99326.05;1681268;84;21662;-66
2020/12/26 00:31:47;;;;;;;3.02;1.20;;;;;;;-0.78;90.81;99332.48;1678923;84;21160;-65
2020/12/26 00:34:16;;;;;;;2.47;1.12;;;;;;;-0.81;90.93;99335.48;1678206;84;21574;-66
2020/12/26 00:36:45;;;;;;;2.45;1.45;;;;;;;-0.84;91.07;99335.10;1678202;84;21204;-66
2020/12/26 00:39:13;;;;;;;3.67;1.47;;;;;;;-0.82;91.18;99337.20;1678109;84;21208;-66
2020/12/26 00:41:46;;;;;;;4.67;1.60;;;;;;;-0.80;91.22;99330.36;1677025;84;21739;-66
2020/12/26 00:44:15;;;;;;;2.87;1.12;;;;;;;-0.79;91.19;99334.61;1678059;84;21202;-66
2020/12/26 00:46:43;;;;;;;3.00;1.32;;;;;;;-0.79;91.10;99333.77;1680064;84;21045;-66
2020/12/26 00:49:13;;;;;;;1.85;1.10;;;;;;;-0.80;91.13;99325.23;1678684;82;21251;-66
2020/12/26 00:51:42;;;;;;;1.40;1.07;;;;;;;-0.81;91.18;99329.95;1681959;83;20990;-66
2020/12/26 00:54:10;;;;;;;2.27;1.32;;;;;;;-0.80;91.21;99330.36;1678511;84;21191;-66
2020/12/26 00:56:41;;;;;;;3.20;1.37;;;;;;;-0.83;91.15;99332.95;1678526;84;21057;-66
2020/12/26 00:59:09;;;;;;;5.90;1.42;;;;;;;-0.85;91.11;99332.09;1679778;84;21175;-66
2020/12/26 01:01:36;;;;;;;6.42;1.60;;;;;;;-0.88;91.19;99343.66;1678185;84;21199;-67
2020/12/26 01:04:05;;;;;;;3.30;1.50;;;;;;;-0.86;91.28;99343.23;1677617;84;21235;-66
2020/12/26 01:06:32;;;;;;;2.55;1.40;;;;;;;-0.86;91.29;99345.78;1677564;84;21157;-66
2020/12/26 01:09:00;;;;;;;4.03;1.55;;;;;;;-0.86;91.33;99344.50;1679383;83;21643;-66
2020/12/26 01:11:29;;;;;;;1.22;1.12;;;;;;;-0.82;91.41;99343.61;1692046;83;21201;-67
2020/12/26 01:13:57;;;;;;;1.62;0.98;;;;;;;-0.81;91.36;99349.17;1693591;83;21209;-66
2020/12/26 01:16:25;;;;;;;;;;;;;;;-0.80;91.36;99355.98;1694148;83;21228;-66
2020/12/26 01:18:53;;;;;;;1.82;0.90;;;;;;;-0.81;91.26;99361.99;1692122;84;20522;-66
2020/12/26 01:21:21;;;;;;;1.45;0.82;;;;;;;-0.82;91.35;99357.70;1691767;83;21233;-66
2020/12/26 01:23:50;;;;;;;2.15;0.90;;;;;;;-0.81;91.33;99358.55;1694207;83;21125;-66
2020/12/26 01:26:19;;;;;;;0.90;0.70;;;;;;;-0.81;91.41;99353.02;1663852;84;21301;-66
2020/12/26 01:28:46;;;;;;;1.40;0.88;;;;;;;-0.79;91.37;99352.55;1666272;85;20997;-66
2020/12/26 01:31:15;;;;;;;0.80;0.55;;;;;;;-0.81;91.35;99361.99;1680085;85;21194;-66
2020/12/26 01:33:46;;;;;;;1.98;0.80;;;;;;;-0.85;91.30;99365.42;1678609;84;21163;-66
2020/12/26 01:36:19;;;;;;;1.70;0.70;;;;;;;-0.88;91.42;99362.88;1679972;85;21648;-66
2020/12/26 01:38:47;;;;;;;1.52;0.70;;;;;;;-0.92;91.47;99366.34;1679668;84;21432;-66
2020/12/26 01:41:15;;;;;;;0.60;0.45;;;;;;;-0.93;91.52;99374.87;1683418;84;21252;-66
2020/12/26 01:44:01;;;;;;;4.58;0.53;;;;;;;-0.95;91.55;99371.48;1674822;84;21226;-66
2020/12/26 01:46:31;;;;;;;0.60;0.60;;;;;;;-0.95;91.64;99370.20;1680171;84;21161;-65
2020/12/26 01:49:00;;;;;;;1.37;0.75;;;;;;;-0.93;91.72;99382.56;1679989;84;21605;-66
2020/12/26 01:51:31;;;;;;;2.22;0.57;;;;;;;-0.91;91.78;99370.59;1680014;84;21259;-65
2020/12/26 01:54:02;;;;;;;2.70;0.72;;;;;;;-0.87;91.80;99381.23;1679716;85;21111;-65
2020/12/26 01:56:31;;;;;;;1.30;0.70;;;;;;;-0.85;91.84;99374.83;1680309;85;21168;-66
2020/12/26 01:59:00;;;;;;;0.50;0.50;;;;;;;-0.82;91.86;99380.77;1680069;84;21145;-66
2020/12/26 02:01:37;;;;;;;0.53;0.30;;;;;;;-0.79;91.85;99391.01;1680437;84;21061;-66
2020/12/26 02:04:06;;;;;;;2.42;0.68;;;;;;;-0.81;91.91;99377.38;1680472;84;21213;-65
2020/12/26 02:09:39;;;;;;;0.95;0.50;;;;;;;-0.81;91.94;99385.06;1700050;82;21253;-66
2020/12/26 02:12:07;;;;;;;1.30;0.50;;;;;;;-0.81;91.98;99385.06;1737440;81;21172;-66
2020/12/26 02:14:35;;;;;;;1.07;0.40;;;;;;;-0.79;92.02;99396.13;1732525;81;21184;-66
2020/12/26 02:17:03;;;;;;;0.47;0.40;;;;;;;-0.80;92.00;99395.72;1728859;81;21408;-66
2020/12/26 02:19:31;;;;;;;1.45;1.00;;;;;;;-0.82;91.98;99393.59;1705011;84;21178;-67
2020/12/26 02:21:59;;;;;;;1.15;0.50;;;;;;;-0.84;92.04;99395.34;1735532;81;21009;-67
2020/12/26 02:24:27;;;;;;;1.32;0.42;;;;;;;-0.85;92.11;99397.46;1718662;81;21141;-67
2020/12/26 02:26:56;;;;;;;0.50;0.50;;;;;;;-0.84;92.09;99397.91;1729159;81;21543;-67
2020/12/26 02:29:24;;;;;;;3.12;0.40;;;;;;;-0.85;92.05;99391.48;1725004;81;21421;-66
2020/12/26 02:31:52;;;;;;;0.75;0.40;;;;;;;-0.85;92.00;99397.90;1729546;81;21048;-66
2020/12/26 02:34:20;;;;;;;0.68;0.33;;;;;;;-0.88;91.98;99397.48;1734521;81;21060;-66
2020/12/26 02:36:47;;;;;;;0.70;0.47;;;;;;;-0.89;91.97;99393.23;1727941;81;20974;-66
2020/12/26 02:39:16;;;;;;;1.75;0.60;;;;;;;-0.89;92.01;99389.38;1734838;81;21676;-66
2020/12/26 02:41:48;;;;;;;0.53;0.40;;;;;;;-0.91;91.95;99391.09;1730468;81;21430;-67
2020/12/26 02:44:16;;;;;;;1.00;0.55;;;;;;;-0.90;91.89;99391.51;1736426;81;21244;-66
2020/12/26 02:46:48;;;;;;;0.93;0.47;;;;;;;-0.93;91.84;99392.81;1737140;81;21132;-66
2020/12/26 02:49:20;;;;;;;0.50;0.40;;;;;;;-0.97;91.87;99394.55;1736254;81;21192;-66
2020/12/26 02:51:48;;;;;;;2.08;0.53;;;;;;;-0.98;91.89;99397.10;1736035;81;21544;-66
2020/12/26 02:54:17;;;;;;;1.90;0.40;;;;;;;-1.01;91.93;99399.69;1730863;81;21252;-67
2020/12/26 02:56:45;;;;;;;0.80;0.60;;;;;;;-1.01;91.99;99397.13;1735651;82;21010;-67
2020/12/26 02:59:13;;;;;;;0.57;0.50;;;;;;;-0.99;92.02;99398.82;1730116;81;21171;-66
2020/12/26 03:01:41;;;;;;;0.50;0.50;;;;;;;-1.00;91.96;99388.59;1734942;81;20988;-66
2020/12/26 03:04:10;;;;;;;0.60;0.60;;;;;;;-1.01;91.93;99389.44;1732041;82;21086;-66
2020/12/26 03:06:37;;;;;;;1.57;0.80;;;;;;;-1.01;91.96;99397.13;1728708;81;21216;-67
2020/12/26 03:09:06;;;;;;;2.30;0.75;;;;;;;-1.02;91.98;99392.88;1724465;82;21208;-66
2020/12/26 03:11:35;;;;;;;0.98;0.40;;;;;;;-1.00;92.00;99396.28;1721512;83;20988;-66
2020/12/26 03:14:05;;;;;;;0.70;0.37;;;;;;;-1.01;91.95;99394.56;1726844;83;21097;-66
2020/12/26 03:16:33;;;;;;;2.10;0.50;;;;;;;-0.99;92.00;99391.57;1707139;83;21190;-66
2020/12/26 03:19:05;;;;;;;1.02;0.57;;;;;;;-1.01;91.97;99396.72;1705558;82;21209;-66
2020/12/26 03:21:34;;;;;;;1.32;0.65;;;;;;;-1.01;92.00;99397.13;1707005;82;21074;-66
2020/12/26 03:24:02;;;;;;;1.00;0.47;;;;;;;-0.99;92.05;99395.41;1706792;82;21166;-66
2020/12/26 03:26:30;;;;;;;0.70;0.50;;;;;;;-0.99;92.01;99399.26;1687630;82;21199;-68
2020/12/26 03:28:58;;;;;;;0.70;0.40;;;;;;;-1.00;92.02;99406.53;1707015;82;21129;-66
2020/12/26 03:31:26;;;;;;;1.07;0.60;;;;;;;-1.00;92.07;99402.69;1704007;83;21276;-66
2020/12/26 03:33:54;;;;;;;2.05;0.78;;;;;;;-1.02;92.10;99409.09;1676647;85;21103;-66
2020/12/26 03:36:23;;;;;;;0.68;0.45;;;;;;;-1.02;92.11;99403.12;1667208;84;21214;-67
2020/12/26 03:38:51;;;;;;;0.70;0.40;;;;;;;-0.97;92.19;99405.23;1664050;85;21032;-66
2020/12/26 03:41:20;;;;;;;0.82;0.50;;;;;;;-0.97;92.07;99405.23;1676003;85;21032;-66
2020/12/26 03:43:47;;;;;;;0.60;0.53;;;;;;;-0.97;92.04;99419.33;1678388;85;21280;-66
2020/12/26 03:46:17;;;;;;;0.70;0.70;;;;;;;-1.00;92.01;99410.38;1672047;85;21054;-66
2020/12/26 03:48:46;;;;;;;1.80;0.57;;;;;;;-1.02;91.96;99418.50;1721886;81;21916;-66
2020/12/26 03:51:15;;;;;;;2.83;0.82;;;;;;;-1.07;91.98;99417.66;1712743;82;21680;-66
2020/12/26 03:53:46;;;;;;;0.47;0.40;;;;;;;-1.06;92.12;99414.27;1724950;81;21149;-66
2020/12/26 03:56:19;;;;;;;0.80;0.60;;;;;;;-1.05;92.08;99417.23;1723091;83;21547;-66
2020/12/26 03:58:47;;;;;;;1.50;0.72;;;;;;;-1.06;92.04;99416.83;1716306;82;21156;-66
2020/12/26 04:01:17;;;;;;;0.70;0.70;;;;;;;-1.06;92.09;99418.11;1726284;82;21216;-66
2020/12/26 04:03:48;;;;;;;0.70;0.50;;;;;;;-1.05;92.08;99413.39;1719133;81;21003;-66
2020/12/26 04:06:16;;;;;;;0.50;0.50;;;;;;;-1.05;92.12;99423.64;1725916;83;21189;-66
2020/12/26 04:08:44;;;;;;;0.47;0.47;;;;;;;-1.06;92.06;99421.95;1708576;81;21265;-66
2020/12/26 04:11:13;;;;;;;0.80;0.60;;;;;;;-1.06;92.05;99427.08;1713941;81;21023;-66
2020/12/26 04:13:44;;;;;;;0.82;0.40;;;;;;;-1.07;92.06;99428.76;1713669;81;21046;-66
2020/12/26 04:16:15;;;;;;;0.65;0.50;;;;;;;-1.07;92.07;99438.16;1722179;82;21211;-66
2020/12/26 04:19:04;;;;;;;0.70;0.50;;;;;;;-1.08;92.10;99437.75;1705809;82;21179;-66
2020/12/26 04:21:36;;;;;;;0.65;0.60;;;;;;;-1.07;92.11;99435.60;1700259;82;21687;-65
2020/12/26 04:24:04;;;;;;;0.80;0.60;;;;;;;-1.07;92.12;99452.25;1708599;82;21032;-66
2020/12/26 04:26:32;;;;;;;2.80;0.50;;;;;;;-1.06;92.15;99445.02;1676358;84;21201;-66
2020/12/26 04:29:00;;;;;;;1.85;0.50;;;;;;;-1.06;92.14;99445.86;1663682;84;21037;-65
2020/12/26 04:31:30;;;;;;;0.88;0.60;;;;;;;-1.04;92.12;99458.64;1672880;84;21139;-65
2020/12/26 04:33:58;;;;;;;0.60;0.60;;;;;;;-1.04;92.12;99462.48;1665256;84;21303;-65
2020/12/26 04:36:26;;;;;;;1.60;0.80;;;;;;;-1.04;92.17;99470.17;1676208;84;21224;-65
2020/12/26 04:38:54;;;;;;;1.57;0.70;;;;;;;-1.02;92.18;99470.59;1672207;84;21184;-66
2020/12/26 04:41:22;;;;;;;1.65;0.50;;;;;;;-0.99;92.14;99472.30;1677329;84;21245;-66
2020/12/26 04:43:54;;;;;;;1.67;0.80;;;;;;;-1.00;92.10;99475.73;1676734;84;21282;-66
2020/12/26 04:46:26;;;;;;;0.90;0.60;;;;;;;-1.02;92.11;99471.03;1680868;82;21575;-66
2020/12/26 04:49:09;;;;;;;2.12;0.70;;;;;;;-1.01;92.14;99474.00;1664028;84;21045;-66
2020/12/26 04:51:40;;;;;;;1.30;0.60;;;;;;;-1.01;92.09;99467.59;1666948;84;21171;-66
2020/12/26 04:54:24;;;;;;;0.72;0.72;;;;;;;-1.04;92.03;99474.87;1668086;84;21610;-66
2020/12/26 04:56:56;;;;;;;0.98;0.50;;;;;;;-1.08;91.99;99468.50;1676399;84;21610;-66
2020/12/26 04:59:25;;;;;;;0.50;0.50;;;;;;;-1.11;92.01;99469.80;1677814;84;21218;-66
2020/12/26 05:01:53;;;;;;;1.20;0.40;;;;;;;-1.16;92.03;99465.53;1676133;84;21069;-66
2020/12/26 05:04:22;;;;;;;1.82;0.50;;;;;;;-1.20;92.02;99474.09;1676040;84;21005;-66
2020/12/26 05:06:53;;;;;;;2.70;0.40;;;;;;;-1.23;92.02;99475.80;1668755;84;21016;-66
2020/12/26 05:09:22;;;;;;;1.22;0.53;;;;;;;-1.25;92.06;99465.57;1671140;84;21714;-65
2020/12/26 05:11:56;;;;;;;1.75;0.65;;;;;;;-1.25;92.10;99470.70;1647547;85;21215;-66
2020/12/26 05:14:26;;;;;;;0.60;0.50;;;;;;;-1.24;92.17;99479.23;1650936;85;21295;-66
2020/12/26 05:16:55;;;;;;;1.80;0.68;;;;;;;-1.22;92.24;99477.52;1703056;82;21601;-66
2020/12/26 05:19:23;;;;;;;1.90;0.70;;;;;;;-1.20;92.28;99471.53;1693827;82;21000;-66
2020/12/26 05:21:56;;;;;;;1.27;0.70;;;;;;;-1.15;92.30;99467.25;1710403;82;21229;-66
2020/12/26 05:24:24;;;;;;;1.15;0.60;;;;;;;-1.08;92.32;99469.78;1657602;84;21236;-66
2020/12/26 05:26:53;;;;;;;1.90;0.53;;;;;;;-1.04;92.25;99479.14;1648229;85;21213;-66
2020/12/26 05:29:23;;;;;;;1.37;0.70;;;;;;;-1.02;92.15;99476.16;1639811;85;21216;-65
2020/12/26 05:31:59;;;;;;;1.07;0.62;;;;;;;-0.99;92.21;99477.42;1676998;85;21700;-65
2020/12/26 05:34:55;;;;;;;0.70;0.55;;;;;;;-0.94;92.24;99487.23;1677122;84;21134;-66
2020/12/26 05:37:23;;;;;;;0.40;0.37;;;;;;;-0.92;92.17;99489.36;1642538;86;21210;-65
2020/12/26 05:39:55;;;;;;;3.17;0.60;;;;;;;-0.93;92.11;99497.89;1643922;85;21805;-67
2020/12/26 05:42:27;;;;;;;1.47;0.40;;;;;;;-0.97;92.11;99492.38;1645669;85;21342;-65
2020/12/26 05:45:10;;;;;;;0.80;0.57;;;;;;;-0.99;92.15;99495.36;1635269;86;21727;-66
2020/12/26 05:47:39;;;;;;;0.50;0.50;;;;;;;-1.00;92.25;99500.92;1629749;86;21213;-67
2020/12/26 05:50:07;;;;;;;;;;;;;;;-0.97;92.29;99498.78;1636865;86;22476;-66
2020/12/26 05:52:36;;;;;;;0.50;0.50;;;;;;;-0.94;92.32;99503.89;1591127;88;20583;-66
2020/12/26 05:55:09;;;;;;;0.60;0.60;;;;;;;-0.95;92.32;99500.48;1607498;87;21297;-67
2020/12/26 05:57:39;;;;;;;1.70;0.70;;;;;;;-0.92;92.35;99504.74;1650386;86;21090;-66
2020/12/26 06:00:07;;;;;;;1.22;0.88;;;;;;;-0.93;92.29;99501.30;1596683;88;21244;-66
2020/12/26 06:02:37;;;;;;;0.60;0.60;;;;;;;-0.89;92.37;99504.73;1612746;88;21449;-66
2020/12/26 06:05:07;;;;;;;0.70;0.60;;;;;;;-0.83;92.37;99503.84;1595792;88;21342;-66
2020/12/26 06:07:37;;;;;;;1.75;0.70;;;;;;;-0.78;92.35;99508.09;1616569;87;21185;-66
2020/12/26 06:10:10;;;;;;;0.90;0.47;;;;;;;-0.75;92.35;99499.10;1640707;86;21157;-64
2020/12/26 06:12:41;;;;;;;0.78;0.57;;;;;;;-0.66;92.36;99505.05;1637069;86;21060;-66
2020/12/26 06:15:11;;;;;;;3.42;0.75;;;;;;;-0.65;92.18;99497.77;1610504;87;21634;-67
2020/12/26 06:17:41;;;;;;;2.02;0.98;;;;;;;-0.62;92.24;99499.02;1625483;87;21642;-66
2020/12/26 06:20:09;;;;;;;1.12;1.02;;;;;;;-0.58;92.23;99499.45;1614280;87;21164;-67
2020/12/26 06:22:50;;;;;;;1.98;0.80;;;;;;;-0.53;92.28;99496.43;1630463;86;21233;-66
2020/12/26 06:25:22;;;;;;;0.93;0.75;;;;;;;-0.52;92.15;99494.27;1616980;86;21225;-66
2020/12/26 06:27:59;;;;;;;1.95;0.90;;;;;;;-0.50;92.14;99498.97;1636997;86;21191;-67
2020/12/26 06:30:31;;;;;;;1.65;1.00;;;;;;;-0.55;91.97;99500.27;1639160;86;21222;-66
2020/12/26 06:32:59;;;;;;;0.80;0.60;;;;;;;-0.54;92.04;99503.69;1640050;86;21204;-66
2020/12/26 06:35:28;;;;;;;0.62;0.50;;;;;;;-0.54;92.02;99507.53;1632589;86;21112;-67
2020/12/26 06:38:18;;;;;;;1.37;0.40;;;;;;;-0.58;91.78;99514.83;1642897;85;21192;-66
2020/12/26 06:41:08;;;;;;;0.80;0.50;;;;;;;-0.61;91.84;99514.85;1647068;85;22340;-67
2020/12/26 06:43:55;;;;;;;0.80;0.45;;;;;;;-0.55;91.90;99522.50;1839927;76;23312;-65
2020/12/26 06:46:28;;;;;;;1.92;0.65;;;;;;;-0.60;91.86;99539.62;1858342;76;20962;-65
2020/12/26 06:48:58;;;;;;;2.22;0.70;;;;;;;-0.62;91.86;99531.92;1859471;75;21129;-65
2020/12/26 06:51:43;;;;;;;1.17;0.60;;;;;;;-0.58;92.00;99533.63;1847374;76;21070;-65
2020/12/26 06:54:38;;;;;;;0.65;0.50;;;;;;;-0.53;91.99;99529.77;1852347;75;21049;-65
2020/12/26 06:57:08;;;;;;;2.60;1.17;;;;;;;-0.49;92.02;99542.98;1847290;76;21477;-66
2020/12/26 06:59:40;;;;;;;5.83;1.70;;;;;;;-0.47;91.98;99539.98;1851070;76;21131;-66
2020/12/26 07:02:11;;;;;;;2.62;0.88;;;;;;;-0.45;91.98;99549.78;1844530;76;21420;-67
2020/12/26 07:04:43;;;;;;;2.22;0.80;;;;;;;-0.43;91.84;99545.51;1851184;76;21034;-66
2020/12/26 07:07:14;;;;;;;1.22;0.60;;;;;;;-0.43;91.86;99551.92;1854238;75;20926;-66
2020/12/26 07:09:49;;;;;;;1.10;0.40;;;;;;;-0.45;91.81;99547.22;1844342;76;21155;-67
2020/12/26 07:12:20;;;;;;;0.60;0.40;;;;;;;-0.45;91.89;99539.53;1841235;76;21584;-66
2020/12/26 07:14:54;;;;;;;0.95;0.57;;;;;;;-0.49;91.85;99555.81;1819530;76;22134;-71
2020/12/26 07:17:31;;;;;;;0.75;0.50;;;;;;;-0.52;91.87;99550.27;1849890;76;21123;-71
2020/12/26 07:20:03;;;;;;;1.90;0.60;;;;;;;-0.53;91.87;99556.70;1856036;76;21053;-71
2020/12/26 07:25:18;;;;;;;3.15;1.25;;;;;;;-0.44;91.92;99568.63;1835834;76;22800;-71
2020/12/26 07:27:55;;;;;;;2.22;1.25;;;;;;;-0.42;91.96;99565.19;1839608;76;22689;-71
2020/12/26 07:30:22;;;;;;;3.08;1.00;;;;;;;-0.45;91.90;99570.31;1848834;77;21061;-70
2020/12/26 07:32:58;;;;;;;3.40;1.25;;;;;;;-0.43;91.89;99569.88;1847084;77;22431;-71
2020/12/26 07:35:46;;;;;;;;;;;;;;;;;;;;;
2020/12/26 07:38:16;;;;;;;1.57;1.02;;;;;;;-0.35;91.92;99577.11;1831457;76;24547;-71
2020/12/26 07:40:52;;;;;;;2.45;1.25;;;;;;;-0.39;91.85;99579.69;1817246;77;20996;-70
2020/12/26 07:43:29;;;;;;;0.80;0.50;;;;;;;-0.35;91.68;99580.95;1767969;79;22567;-71
2020/12/26 07:48:38;;;;;;;0.90;0.60;;;;;;;-0.58;91.80;99585.36;1827325;76;22454;-70
2020/12/26 07:51:12;;;;;;;1.42;0.70;;;;;;;-0.67;91.91;99584.97;1786459;79;21622;-69
2020/12/26 07:53:42;;;;;;;2.35;1.10;;;;;;;-0.70;91.93;99581.98;1795621;78;21260;-70
2020/12/26 07:56:09;;;;;;;0.70;0.70;;;;;;;-0.68;92.10;99584.09;1739606;81;21080;-70
2020/12/26 07:58:38;;;;;;;1.12;0.82;;;;;;;-0.66;92.09;99581.53;1744469;81;26778;-71
2020/12/26 08:01:08;;;;;;;2.37;0.75;;;;;;;-0.66;92.00;99579.41;1727307;81;21078;-69
2020/12/26 08:03:35;;;;;;;2.25;0.70;;;;;;;-0.64;92.07;99576.38;1716324;81;22464;-70
2020/12/26 08:06:04;;;;;;;2.05;0.80;;;;;;;-0.64;92.08;99585.35;1727887;81;21153;-68
2020/12/26 08:08:34;;;;;;;1.20;0.80;;;;;;;-0.62;92.15;99579.80;1733810;81;21039;-70
2020/12/26 08:11:02;;;;;;;1.37;1.07;;;;;;;-0.59;92.12;99586.20;1736262;81;21118;-70
2020/12/26 08:13:31;;;;;;;;;;;;;;;-0.56;92.05;99590.03;1732251;81;21157;-68
2020/12/26 08:16:05;;;;;;;2.72;1.47;;;;;;;-0.58;91.97;99595.18;1729783;81;20684;-68
2020/12/26 08:18:36;;;;;;;2.08;1.20;;;;;;;-0.55;92.06;99596.87;1732142;81;21219;-68
2020/12/26 08:21:06;;;;;;;2.50;1.27;;;;;;;-0.52;92.04;99603.27;1749191;81;21044;-70
2020/12/26 08:23:32;;;;;;;3.40;1.60;;;;;;;-0.51;91.88;99607.53;1733990;80;21081;-69
2020/12/26 08:26:03;;;;;;;2.60;0.90;;;;;;;-0.50;92.03;99606.70;1726686;81;21145;-69
2020/12/26 08:28:31;;;;;;;1.40;1.20;;;;;;;-0.47;91.96;99602.83;1725009;81;21670;-69
2020/12/26 08:31:03;;;;;;;1.45;0.90;;;;;;;-0.44;91.76;99609.23;1725995;81;21095;-68
2020/12/26 08:33:40;;;;;;;0.70;0.50;;;;;;;-0.42;91.96;99613.93;1727510;81;21094;-69
2020/12/26 08:36:35;;;;;;;0.85;0.60;;;;;;;-0.38;91.82;99621.17;1732081;81;21180;-69
2020/12/26 08:39:04;;;;;;;1.17;0.70;;;;;;;-0.31;92.12;99609.59;1733538;81;21018;-69
2020/12/26 08:41:33;;;;;;;1.12;0.75;;;;;;;-0.20;92.16;99609.95;1721565;81;21145;-68
2020/12/26 08:44:10;;;;;;;2.55;1.10;;;;;;;-0.11;92.11;99612.45;1728402;81;21221;-69
2020/12/26 08:46:44;;;;;;;1.92;1.15;;;;;;;-0.06;92.01;99613.30;1731944;81;21279;-69
2020/12/26 08:49:15;;;;;;;3.33;1.80;;;;;;;-0.02;91.86;99621.41;1737221;81;21270;-68
2020/12/26 08:51:45;;;;;;;5.87;1.62;;;;;;;-0.05;91.70;99618.87;1738947;80;21252;-69
2020/12/26 08:54:23;;;;;;;2.72;1.40;;;;;;;-0.07;91.60;99625.72;1731122;81;21155;-70
2020/12/26 08:56:51;;;;;;;2.33;1.60;;;;;;;-0.12;91.48;99614.61;1724966;81;22361;-70
2020/12/26 08:59:34;;;;;;;2.60;1.30;;;;;;;-0.13;91.67;99616.77;1742442;80;21256;-69
2020/12/26 09:02:01;;;;;;;6.08;2.27;;;;;;;-0.08;91.76;99617.61;1712658;82;21146;-67
2020/12/26 09:04:29;;;;;;;5.87;2.55;;;;;;;-0.06;91.82;99623.12;1711291;82;21202;-70
2020/12/26 09:06:56;;;;;;;4.28;2.58;;;;;;;0.00;91.90;99622.27;1708888;81;21108;-70
2020/12/26 09:09:30;;;;;;;7.95;2.52;;;;;;;0.09;92.00;99622.20;1724222;81;21264;-68
2020/12/26 09:12:05;;;;;;;4.70;2.08;;;;;;;0.19;92.05;99626.39;1685719;84;21087;-69
2020/12/26 09:14:33;;;;;;;9.10;3.12;;;;;;;0.29;92.08;99623.78;1691956;83;21192;-71
2020/12/26 09:17:02;;;;;;;11.05;5.25;;;;;;;0.37;91.99;99627.15;1703022;83;21232;-70
2020/12/26 09:19:44;;;;;;;15.03;6.95;;;;;;;0.40;91.86;99639.97;1704624;83;21167;-69
2020/12/26 09:22:12;;;;;;;8.65;6.37;;;;;;;0.43;91.70;99638.22;1711604;81;21204;-69
2020/12/26 09:24:40;;;;;;;12.55;6.58;;;;;;;0.46;91.75;99648.91;1709146;82;21207;-70
2020/12/26 09:27:22;;;;;;;4.50;2.80;;;;;;;0.47;91.57;99654.89;1722725;81;21182;-70
2020/12/26 09:30:06;;;;;;;5.05;3.25;;;;;;;0.62;91.79;99655.64;1846865;76;22738;-72
2020/12/26 09:32:33;;;;;;;5.95;3.87;;;;;;;0.69;91.87;99646.14;1860541;75;21017;-70
2020/12/26 09:35:07;;;;;;;7.17;3.80;;;;;;;0.86;91.88;99647.28;1870743;76;21367;-70
2020/12/26 09:37:34;;;;;;;7.05;4.28;;;;;;;0.99;91.77;99650.61;1854963;75;21016;-70
2020/12/26 09:40:01;;;;;;;;;;;;;;;1.04;91.50;99649.70;1852107;76;20973;-70
2020/12/26 09:42:30;;;;;;;8.78;4.08;;;;;;;1.05;91.39;99650.11;1840306;76;20271;-71
2020/12/26 09:44:58;;;;;;;4.08;3.20;;;;;;;1.04;91.33;99662.55;1844813;76;21080;-70
2020/12/26 09:47:27;;;;;;;6.20;2.83;;;;;;;1.05;91.26;99666.81;1849995;76;20993;-70
2020/12/26 09:49:59;;;;;;;3.45;2.27;;;;;;;1.06;91.32;99660.80;1841558;76;20990;-70
2020/12/26 09:55:19;;;;;;;3.27;2.25;;;;;;;1.17;91.30;99660.70;1838262;76;23066;-69
2020/12/26 09:57:49;;;;;;;;;;;;;;;1.16;91.35;99660.29;1808311;77;21012;-70
2020/12/26 10:00:18;;;;;;;3.22;2.02;;;;;;;1.17;91.25;99663.27;1808465;77;21183;-70
2020/12/26 10:02:57;;;;;;;3.42;2.20;;;;;;;1.26;91.37;99649.45;1829095;76;22789;-71
2020/12/26 10:05:28;;;;;;;5.60;2.42;;;;;;;1.24;91.19;99656.36;1795696;77;21324;-71
2020/12/26 10:07:57;;;;;;;3.50;2.50;;;;;;;1.15;90.91;99651.29;1811179;77;21414;-68
2020/12/26 10:10:24;;;;;;;7.37;3.70;;;;;;;1.00;90.79;99654.43;1813092;77;21107;-70
2020/12/26 10:12:52;;;;;;;6.65;3.62;;;;;;;1.01;91.15;99653.99;1797356;78;21045;-70
2020/12/26 10:15:22;;;;;;;7.20;3.83;;;;;;;1.02;91.20;99650.14;1794386;77;21043;-70
2020/12/26 10:17:51;;;;;;;7.65;3.92;;;;;;;1.05;91.33;99651.39;1809217;77;21558;-70
2020/12/26 10:20:19;;;;;;;4.08;2.15;;;;;;;1.04;91.34;99647.12;1798573;77;21203;-70
2020/12/26 10:22:47;;;;;;;4.05;2.83;;;;;;;1.07;91.28;99649.66;1796454;77;21215;-70
2020/12/26 10:25:14;;;;;;;5.42;3.30;;;;;;;1.14;91.50;99653.45;1800242;77;21036;-70
2020/12/26 10:27:41;;;;;;;2.90;2.40;;;;;;;1.19;91.46;99650.41;1802551;77;20973;-69
2020/12/26 10:30:11;;;;;;;4.95;2.85;;;;;;;1.25;91.51;99653.75;1799455;77;21175;-70
2020/12/26 10:32:41;;;;;;;4.22;2.42;;;;;;;1.24;91.38;99654.64;1809531;77;22185;-69
2020/12/26 10:35:11;;;;;;;3.55;2.40;;;;;;;1.32;91.49;99657.14;1825999;77;21075;-69
2020/12/26 10:37:41;;;;;;;4.75;2.70;;;;;;;1.36;91.37;99658.79;1802362;77;21629;-70
2020/12/26 10:40:08;;;;;;;5.53;2.90;;;;;;;1.31;91.01;99655.41;1791563;77;21697;-69
2020/12/26 10:42:35;;;;;;;3.72;1.72;;;;;;;1.31;91.22;99656.70;1731137;80;21214;-69
2020/12/26 10:45:05;;;;;;;3.15;2.42;;;;;;;1.28;91.04;99658.02;1739534;80;22117;-69
2020/12/26 10:47:38;;;;;;;3.77;2.30;;;;;;;1.27;91.07;99653.75;1746366;80;21084;-69
2020/12/26 10:50:23;;;;;;;3.55;2.30;;;;;;;1.30;91.24;99654.56;1866583;74;23371;-70
2020/12/26 10:53:01;;;;;;;4.25;2.75;;;;;;;1.27;91.05;99649.89;1768858;78;27943;-69
2020/12/26 10:55:31;;;;;;;3.60;2.35;;;;;;;1.29;91.27;99657.17;1769937;80;21049;-69
2020/12/26 10:57:59;;;;;;;4.08;2.37;;;;;;;1.38;91.22;99657.06;1768238;80;21144;-69
2020/12/26 11:00:27;;;;;;;4.58;2.60;;;;;;;1.37;91.02;99662.20;1765401;80;21068;-69
2020/12/26 11:02:55;;;;;;;5.17;2.92;;;;;;;1.41;91.15;99664.74;1766577;80;21022;-69
2020/12/26 11:05:22;;;;;;;4.40;2.20;;;;;;;1.46;91.20;99662.98;1772428;80;21053;-69
2020/12/26 11:07:49;;;;;;;3.85;2.30;;;;;;;1.38;90.82;99659.63;1768950;80;21183;-69
2020/12/26 11:10:19;;;;;;;4.00;2.02;;;;;;;1.30;90.88;99656.29;1714358;81;21216;-69
2020/12/26 11:12:46;;;;;;;5.15;2.52;;;;;;;1.33;91.12;99660.11;1703581;83;21655;-68
2020/12/26 11:15:13;;;;;;;5.08;2.70;;;;;;;1.33;91.08;99661.40;1741248;82;21056;-67
2020/12/26 11:17:40;;;;;;;7.95;3.12;;;;;;;1.27;90.93;99655.04;1715079;82;21254;-68
2020/12/26 11:20:09;;;;;;;6.30;3.62;;;;;;;1.20;90.94;99650.81;1710610;82;21569;-68
2020/12/26 11:22:36;;;;;;;10.10;4.80;;;;;;;1.17;91.01;99653.42;1706207;83;21465;-68
2020/12/26 11:25:04;;;;;;;9.95;5.67;;;;;;;1.25;91.32;99649.05;1708019;83;21191;-69
2020/12/26 11:27:31;;;;;;;9.95;5.50;;;;;;;1.34;91.42;99647.66;1716058;82;21026;-69
2020/12/26 11:30:00;;;;;;;14.73;7.62;;;;;;;1.39;91.29;99640.74;1736550;81;21194;-69
2020/12/26 11:32:27;;;;;;;15.72;7.80;;;;;;;1.32;91.08;99646.84;1714926;83;21679;-69
2020/12/26 11:34:55;;;;;;;8.85;4.45;;;;;;;1.24;90.94;99644.78;1709293;83;21243;-68
2020/12/26 11:37:24;;;;;;;13.88;5.75;;;;;;;1.18;91.06;99646.14;1722221;82;21123;-69
2020/12/26 11:39:51;;;;;;;13.55;5.92;;;;;;;1.23;91.28;99646.92;1713945;83;21677;-69
2020/12/26 11:42:19;;;;;;;14.98;4.20;;;;;;;1.32;91.43;99646.84;1737517;81;21029;-69
2020/12/26 11:44:46;;;;;;;3.55;1.77;;;;;;;1.36;91.23;99635.64;1735550;82;21562;-69
2020/12/26 11:47:14;;;;;;;3.37;1.90;;;;;;;1.45;91.39;99642.39;1743098;81;21195;-69
2020/12/26 11:49:41;;;;;;;4.30;2.75;;;;;;;1.51;91.35;99643.20;1739777;81;21022;-70
2020/12/26 11:52:10;;;;;;;3.72;2.33;;;;;;;1.51;91.24;99645.77;1734324;81;21666;-70
2020/12/26 11:54:37;;;;;;;3.58;2.60;;;;;;;1.46;90.95;99650.11;1743601;81;21625;-69
2020/12/26 11:57:04;;;;;;;6.83;3.70;;;;;;;1.38;90.96;99646.77;1745849;81;21191;-69
2020/12/26 11:59:32;;;;;;;5.58;2.47;;;;;;;1.35;91.11;99644.23;1734943;82;21293;-70
2020/12/26 12:01:59;;;;;;;4.50;2.72;;;;;;;1.30;91.03;99644.72;1738464;81;21101;-69
2020/12/26 12:04:31;;;;;;;4.08;2.75;;;;;;;1.24;90.91;99642.22;1737524;81;21602;-70